Time;durP1;ratioP1;P1;durP2;ratioP2;P2;SDS_P1;SDS_P2;PMS_P1;PMS_P2;Temp;Humidity;BMP_temperature;BMP_pressure;BME280_temperature;BME280_humidity;BME280_pressure;Samples;Min_cycle;Max_cycle;Signal;HPM_P1;HPM_P2
2021/11/21 00:00:34;;;;;;;1.30;1.20;;;10.50;99.90;;;;;;5083772;28;20442;-69
2021/11/21 00:03:05;;;;;;;2.90;1.40;;;10.40;99.90;;;;;;5090358;28;20455;-71
2021/11/21 00:05:40;;;;;;;1.47;1.37;;;10.40;99.90;;;;;;5089568;28;20458;-70
2021/11/21 00:08:14;;;;;;;1.30;1.10;;;10.20;99.90;;;;;;5097856;28;20452;-75
2021/11/21 00:10:45;;;;;;;1.60;1.50;;;10.20;99.90;;;;;;5104962;28;20503;-72
2021/11/21 00:13:16;;;;;;;2.50;1.50;;;10.10;99.90;;;;;;5106236;28;20454;-76
2021/11/21 00:15:47;;;;;;;1.73;1.63;;;9.90;99.90;;;;;;5090080;28;20524;-71
2021/11/21 00:18:18;;;;;;;2.03;1.33;;;9.90;99.90;;;;;;5085075;28;20485;-69
2021/11/21 00:20:49;;;;;;;2.13;1.57;;;9.80;99.90;;;;;;5100671;28;20458;-69
2021/11/21 00:23:22;;;;;;;1.30;1.20;;;9.70;99.90;;;;;;5091712;28;20493;-72
2021/11/21 00:25:53;;;;;;;1.80;1.70;;;9.70;99.90;;;;;;5097477;28;20450;-68
2021/11/21 00:28:24;;;;;;;2.27;2.07;;;9.60;99.90;;;;;;5084851;28;20470;-69
2021/11/21 00:30:55;;;;;;;2.75;2.00;;;9.50;99.90;;;;;;5103548;28;20477;-69
2021/11/21 00:33:26;;;;;;;2.30;2.10;;;9.50;99.90;;;;;;5093440;28;20304;-76
2021/11/21 00:35:57;;;;;;;3.17;2.53;;;9.30;99.90;;;;;;5092905;28;20442;-71
2021/11/21 00:38:29;;;;;;;3.50;3.20;;;9.20;99.90;;;;;;5104534;28;20662;-73
2021/11/21 00:41:00;;;;;;;3.95;3.55;;;9.10;99.90;;;;;;5089647;28;20447;-72
2021/11/21 00:43:31;;;;;;;3.60;3.30;;;9.00;99.90;;;;;;5091700;28;20573;-69
2021/11/21 00:46:02;;;;;;;5.47;4.53;;;8.90;99.90;;;;;;5091955;28;20453;-73
2021/11/21 00:48:36;;;;;;;4.77;4.33;;;8.80;99.90;;;;;;5103251;28;20299;-71
2021/11/21 00:51:07;;;;;;;7.32;4.40;;;8.70;99.90;;;;;;5103262;28;20816;-71
2021/11/21 00:53:42;;;;;;;8.15;3.90;;;8.50;99.90;;;;;;5093256;28;20216;-70
2021/11/21 00:56:13;;;;;;;3.60;3.30;;;8.50;99.90;;;;;;5094032;28;20598;-74
2021/11/21 00:58:44;;;;;;;4.28;3.88;;;8.40;99.90;;;;;;5097627;28;20263;-71
2021/11/21 01:01:15;;;;;;;3.97;3.30;;;8.20;99.90;;;;;;5097556;28;20660;-68
2021/11/21 01:03:46;;;;;;;6.20;3.85;;;8.20;99.90;;;;;;5101648;28;20272;-71
2021/11/21 01:06:17;;;;;;;3.50;3.20;;;8.10;99.90;;;;;;5108122;28;20215;-73
2021/11/21 01:08:50;;;;;;;3.72;3.42;;;8.00;99.90;;;;;;5111978;28;20221;-70
2021/11/21 01:11:21;;;;;;;6.88;3.40;;;7.90;99.90;;;;;;5092985;28;20587;-74
2021/11/21 01:13:52;;;;;;;4.43;4.03;;;7.80;99.90;;;;;;5108611;28;20311;-68
2021/11/21 01:16:27;;;;;;;6.40;4.78;;;7.70;99.90;;;;;;5096568;28;20693;-68
2021/11/21 01:18:58;;;;;;;6.22;5.63;;;7.60;99.90;;;;;;5104624;28;20205;-69
2021/11/21 01:21:30;;;;;;;6.40;5.80;;;7.60;99.90;;;;;;5103885;28;20630;-68
2021/11/21 01:24:03;;;;;;;6.70;6.15;;;7.50;99.90;;;;;;5112949;28;20208;-69
2021/11/21 01:26:33;;;;;;;7.70;7.00;;;7.50;99.90;;;;;;5102802;28;20291;-70
2021/11/21 01:29:04;;;;;;;7.00;6.40;;;7.40;99.90;;;;;;5096716;28;20239;-70
2021/11/21 01:31:35;;;;;;;6.90;6.28;;;7.40;99.90;;;;;;5085658;28;20707;-72
2021/11/21 01:34:07;;;;;;;8.65;6.72;;;7.30;99.90;;;;;;5090724;28;20235;-75
2021/11/21 01:36:37;;;;;;;6.85;6.25;;;7.30;99.90;;;;;;5087498;28;20215;-74
2021/11/21 01:39:10;;;;;;;7.13;6.43;;;7.20;99.90;;;;;;5099078;28;20221;-70
2021/11/21 01:41:42;;;;;;;8.60;7.00;;;7.20;99.90;;;;;;5101067;28;20220;-71
2021/11/21 01:44:16;;;;;;;7.50;6.80;;;7.10;99.90;;;;;;5098541;28;20238;-69
2021/11/21 01:46:48;;;;;;;8.27;7.03;;;7.00;99.90;;;;;;5100790;28;20208;-71
2021/11/21 01:49:19;;;;;;;7.85;7.07;;;6.90;99.90;;;;;;5083267;28;20219;-72
2021/11/21 01:51:51;;;;;;;8.73;7.40;;;6.90;99.90;;;;;;5089211;28;20403;-71
2021/11/21 01:54:23;;;;;;;7.57;6.80;;;6.90;99.90;;;;;;5096542;28;20250;-73
2021/11/21 01:56:54;;;;;;;6.32;5.72;;;6.80;99.90;;;;;;5088426;28;20212;-70
2021/11/21 01:59:25;;;;;;;7.70;6.50;;;6.70;99.90;;;;;;5091105;28;20259;-70
2021/11/21 02:01:56;;;;;;;7.90;7.07;;;6.70;99.90;;;;;;5088657;28;20697;-71
2021/11/21 02:04:28;;;;;;;8.52;6.40;;;6.70;99.90;;;;;;5094325;28;20250;-71
2021/11/21 02:06:59;;;;;;;7.53;6.78;;;6.60;99.90;;;;;;5101208;28;20649;-69
2021/11/21 02:09:31;;;;;;;9.38;7.82;;;6.60;99.90;;;;;;5090715;28;20218;-69
2021/11/21 02:12:02;;;;;;;7.60;6.95;;;6.60;99.90;;;;;;5085069;28;20239;-70
2021/11/21 02:14:34;;;;;;;8.68;6.55;;;6.60;99.90;;;;;;5098062;28;20346;-70
2021/11/21 02:17:05;;;;;;;7.95;7.25;;;6.60;99.90;;;;;;5095131;28;20216;-69
2021/11/21 02:19:36;;;;;;;7.13;6.43;;;6.50;99.90;;;;;;5096571;28;20208;-69
2021/11/21 02:22:08;;;;;;;9.70;8.30;;;6.40;99.90;;;;;;5104971;28;20618;-70
2021/11/21 02:24:39;;;;;;;7.90;7.10;;;6.50;99.90;;;;;;5094340;28;20220;-70
2021/11/21 02:27:10;;;;;;;9.57;8.20;;;6.40;99.90;;;;;;5088841;28;20212;-69
2021/11/21 02:29:41;;;;;;;10.68;8.00;;;6.30;99.90;;;;;;5091740;28;20268;-73
2021/11/21 02:32:12;;;;;;;8.73;7.82;;;6.30;99.90;;;;;;5092343;28;20224;-69
2021/11/21 02:34:42;;;;;;;10.50;9.50;;;6.30;99.90;;;;;;5098305;28;20216;-69
2021/11/21 02:37:15;;;;;;;10.77;9.38;;;6.30;99.90;;;;;;5102335;28;20669;-72
2021/11/21 02:39:46;;;;;;;10.32;9.32;;;6.20;99.90;;;;;;5102317;28;20300;-69
2021/11/21 02:42:28;;;;;;;10.55;8.68;;;6.20;99.90;;;;;;5099533;28;20560;-70
2021/11/21 02:45:00;;;;;;;13.20;11.50;;;6.10;99.90;;;;;;5088149;28;20607;-70
2021/11/21 02:47:34;;;;;;;14.00;12.52;;;6.10;99.90;;;;;;5097494;28;20309;-70
2021/11/21 02:50:07;;;;;;;15.52;13.93;;;6.20;99.90;;;;;;5075673;28;20219;-69
2021/11/21 02:52:40;;;;;;;17.58;15.75;;;6.10;99.90;;;;;;5110209;28;20534;-69
2021/11/21 02:55:11;;;;;;;20.48;18.27;;;6.00;99.90;;;;;;5091712;28;20218;-70
2021/11/21 02:57:42;;;;;;;22.77;20.10;;;6.00;99.90;;;;;;5105358;28;20242;-69
2021/11/21 03:00:16;;;;;;;27.20;19.23;;;5.90;99.90;;;;;;5084706;28;20219;-69
2021/11/21 03:02:48;;;;;;;26.05;22.73;;;5.80;99.90;;;;;;5110568;28;20260;-68
2021/11/21 03:05:20;;;;;;;27.67;23.30;;;5.80;99.90;;;;;;5101359;28;20291;-69
2021/11/21 03:07:53;;;;;;;25.75;22.17;;;5.70;99.90;;;;;;5094790;28;20224;-68
2021/11/21 03:10:24;;;;;;;28.80;24.88;;;5.70;99.90;;;;;;5095228;28;20212;-69
2021/11/21 03:12:59;;;;;;;29.80;26.70;;;5.80;99.90;;;;;;5104816;28;20334;-69
2021/11/21 03:15:30;;;;;;;33.90;30.40;;;5.80;99.90;;;;;;5091440;28;20212;-71
2021/11/21 03:18:02;;;;;;;32.05;28.58;;;5.80;99.90;;;;;;5077225;28;20221;-69
2021/11/21 03:20:35;;;;;;;31.33;28.02;;;5.70;99.90;;;;;;5102228;28;20689;-70
2021/11/21 03:23:09;;;;;;;35.65;31.73;;;5.70;99.90;;;;;;5077629;28;20211;-73
2021/11/21 03:25:40;;;;;;;36.22;31.40;;;5.70;99.90;;;;;;5094158;28;20223;-70
2021/11/21 03:28:10;;;;;;;37.80;34.03;;;5.60;99.90;;;;;;5089763;28;20268;-75
2021/11/21 03:30:42;;;;;;;38.67;34.75;;;5.60;99.90;;;;;;5092561;28;20220;-71
2021/11/21 03:33:13;;;;;;;41.20;34.55;;;5.50;99.90;;;;;;5095147;28;20219;-70
2021/11/21 03:35:44;;;;;;;40.17;34.83;;;5.50;99.90;;;;;;5097277;28;20216;-69
2021/11/21 03:38:18;;;;;;;36.05;31.55;;;5.40;99.90;;;;;;5092874;28;20311;-70
2021/11/21 03:40:49;;;;;;;35.30;31.27;;;5.40;99.90;;;;;;5102518;28;20233;-71
2021/11/21 03:43:20;;;;;;;35.72;31.85;;;5.40;99.90;;;;;;5099368;28;20585;-72
2021/11/21 03:45:51;;;;;;;31.95;28.75;;;5.30;99.90;;;;;;5096532;28;20239;-69
2021/11/21 03:48:22;;;;;;;33.78;29.83;;;5.30;99.90;;;;;;5092524;28;20295;-69
2021/11/21 03:50:53;;;;;;;31.25;28.00;;;5.30;99.90;;;;;;5101647;28;20239;-69
2021/11/21 03:53:25;;;;;;;32.85;27.50;;;5.20;99.90;;;;;;5092327;28;20228;-70
2021/11/21 03:55:56;;;;;;;30.60;27.45;;;5.20;99.90;;;;;;5089052;28;20209;-72
2021/11/21 03:58:27;;;;;;;30.15;27.08;;;5.20;99.90;;;;;;5093333;28;20669;-71
2021/11/21 04:00:58;;;;;;;28.83;25.83;;;5.10;99.90;;;;;;5094116;28;20230;-68
2021/11/21 04:03:29;;;;;;;30.17;25.48;;;5.00;99.90;;;;;;5108746;28;20212;-69
2021/11/21 04:06:00;;;;;;;29.02;26.00;;;5.00;99.90;;;;;;5097992;28;20234;-69
2021/11/21 04:08:33;;;;;;;27.90;24.98;;;5.00;99.90;;;;;;5108844;28;20622;-69
2021/11/21 04:11:04;;;;;;;30.20;27.20;;;5.00;99.90;;;;;;5106971;28;20224;-73
2021/11/21 04:13:35;;;;;;;32.05;28.75;;;5.00;99.90;;;;;;5102240;28;20230;-70
2021/11/21 04:16:06;;;;;;;31.92;28.48;;;5.00;99.90;;;;;;5097471;28;20212;-70
2021/11/21 04:18:37;;;;;;;37.30;33.50;;;5.00;99.90;;;;;;5108461;28;20653;-70
2021/11/21 04:21:07;;;;;;;33.10;29.77;;;4.80;99.90;;;;;;5100948;28;20223;-69
2021/11/21 04:23:40;;;;;;;252.68;68.97;;;4.80;99.90;;;;;;5091786;28;20209;-74
2021/11/21 04:26:11;;;;;;;1999.90;442.98;;;4.80;99.90;;;;;;5074704;28;20223;-72
2021/11/21 04:28:41;;;;;;;34.83;31.13;;;4.80;99.90;;;;;;5094558;28;20246;-70
2021/11/21 04:31:12;;;;;;;35.28;31.77;;;4.80;99.90;;;;;;5099659;28;20209;-69
2021/11/21 04:33:43;;;;;;;39.03;35.22;;;4.70;99.90;;;;;;5102040;28;20569;-69
2021/11/21 04:36:14;;;;;;;39.22;35.03;;;4.70;99.90;;;;;;5088878;28;20563;-69
2021/11/21 04:38:47;;;;;;;40.75;36.33;;;4.70;99.90;;;;;;5091372;28;20662;-70
2021/11/21 04:41:17;;;;;;;41.92;37.63;;;4.70;99.90;;;;;;5089796;28;20208;-72
2021/11/21 04:43:48;;;;;;;44.17;39.45;;;4.60;99.90;;;;;;5091506;28;20213;-69
2021/11/21 04:46:19;;;;;;;44.83;39.58;;;4.60;99.90;;;;;;5107816;28;20207;-74
2021/11/21 04:48:50;;;;;;;48.90;37.78;;;4.50;99.90;;;;;;5081916;28;20212;-69
2021/11/21 04:51:21;;;;;;;46.03;39.55;;;4.60;99.90;;;;;;5087161;28;20306;-69
2021/11/21 04:53:53;;;;;;;46.65;40.15;;;4.60;99.90;;;;;;5091333;28;20250;-69
2021/11/21 04:56:24;;;;;;;48.22;39.15;;;4.50;99.90;;;;;;5089423;28;20209;-69
2021/11/21 04:58:55;;;;;;;43.10;36.42;;;4.40;99.90;;;;;;5091639;28;20213;-69
2021/11/21 05:01:26;;;;;;;45.08;39.72;;;4.40;99.90;;;;;;5096596;28;20211;-69
2021/11/21 05:03:57;;;;;;;43.63;36.35;;;4.40;99.90;;;;;;5102060;27;20204;-69
2021/11/21 05:06:28;;;;;;;42.08;37.38;;;4.40;99.90;;;;;;5089156;28;20705;-69
2021/11/21 05:09:01;;;;;;;41.42;36.90;;;4.40;99.90;;;;;;5091294;28;20216;-69
2021/11/21 05:11:32;;;;;;;44.33;37.58;;;4.30;99.90;;;;;;5100027;28;20700;-69
2021/11/21 05:14:04;;;;;;;48.88;38.38;;;4.30;99.90;;;;;;5089134;28;20697;-69
2021/11/21 05:16:35;;;;;;;43.90;39.17;;;4.30;99.90;;;;;;5092633;28;20221;-69
2021/11/21 05:19:06;;;;;;;47.08;39.72;;;4.30;99.90;;;;;;5107668;28;20369;-75
2021/11/21 05:21:37;;;;;;;43.08;37.70;;;4.30;99.90;;;;;;5101277;28;20212;-73
2021/11/21 05:24:10;;;;;;;44.45;39.72;;;4.40;99.90;;;;;;5098710;28;20573;-70
2021/11/21 05:26:41;;;;;;;42.47;37.88;;;4.40;99.90;;;;;;5088706;28;20224;-69
2021/11/21 05:29:11;;;;;;;41.42;37.20;;;4.40;99.90;;;;;;5095353;28;20235;-69
2021/11/21 05:31:42;;;;;;;40.47;35.60;;;4.40;99.90;;;;;;5092909;28;20585;-70
2021/11/21 05:34:14;;;;;;;38.38;33.60;;;4.40;99.90;;;;;;5094825;28;20225;-75
2021/11/21 05:36:45;;;;;;;87.47;57.10;;;4.30;99.90;;;;;;5089793;28;20219;-69
2021/11/21 05:39:18;;;;;;;57.40;50.05;;;4.40;99.90;;;;;;5088421;28;20218;-69
2021/11/21 05:41:48;;;;;;;42.22;37.90;;;4.30;99.90;;;;;;5099633;28;20226;-69
2021/11/21 05:44:20;;;;;;;40.00;35.65;;;4.10;99.90;;;;;;5088586;28;20208;-69
2021/11/21 05:46:51;;;;;;;37.83;33.00;;;4.20;99.90;;;;;;5089092;28;20246;-69
2021/11/21 05:49:22;;;;;;;40.92;36.55;;;4.20;99.90;;;;;;5085758;28;20270;-73
2021/11/21 05:51:52;;;;;;;40.03;34.38;;;4.20;99.90;;;;;;5088608;28;20534;-69
2021/11/21 05:54:25;;;;;;;35.35;30.92;;;4.10;99.90;;;;;;5110433;28;20234;-69
2021/11/21 05:56:55;;;;;;;37.28;30.40;;;4.20;99.90;;;;;;5090993;28;20216;-69
2021/11/21 05:59:26;;;;;;;33.45;29.45;;;4.10;99.90;;;;;;5096399;28;20683;-69
2021/11/21 06:01:57;;;;;;;41.28;31.92;;;4.10;99.90;;;;;;5101257;28;20218;-69
2021/11/21 06:04:28;;;;;;;36.67;27.50;;;4.20;99.90;;;;;;5085538;28;20563;-70
2021/11/21 06:06:59;;;;;;;34.10;29.23;;;4.20;99.90;;;;;;5089978;28;20221;-71
2021/11/21 06:09:32;;;;;;;35.95;29.70;;;4.20;99.90;;;;;;5084856;28;20334;-69
2021/11/21 06:12:03;;;;;;;31.20;27.83;;;4.20;99.90;;;;;;5090107;28;20259;-69
2021/11/21 06:14:34;;;;;;;35.60;29.85;;;4.20;99.90;;;;;;5088083;28;20228;-69
2021/11/21 06:17:06;;;;;;;34.92;31.02;;;4.10;99.90;;;;;;5090185;28;20216;-69
2021/11/21 06:19:38;;;;;;;36.72;31.73;;;4.00;99.90;;;;;;5083383;28;20590;-73
2021/11/21 06:22:09;;;;;;;37.45;31.67;;;4.00;99.90;;;;;;5090217;28;20212;-71
2021/11/21 06:24:41;;;;;;;38.45;33.13;;;3.90;99.90;;;;;;5091149;28;20213;-73
2021/11/21 06:27:13;;;;;;;40.25;31.90;;;3.80;99.90;;;;;;5084558;28;20212;-71
2021/11/21 06:29:44;;;;;;;38.20;33.50;;;3.90;99.90;;;;;;5087747;28;20251;-69
2021/11/21 06:32:15;;;;;;;40.25;35.25;;;3.90;99.90;;;;;;5088436;28;20212;-70
2021/11/21 06:34:45;;;;;;;35.78;31.55;;;4.00;99.90;;;;;;5093903;28;20231;-69
2021/11/21 06:37:16;;;;;;;246.32;71.40;;;3.80;99.90;;;;;;5090214;28;20212;-70
2021/11/21 06:39:49;;;;;;;33.30;28.67;;;3.70;99.90;;;;;;5086472;28;20216;-72
2021/11/21 06:42:20;;;;;;;30.80;27.50;;;3.60;99.90;;;;;;5089914;28;20534;-70
2021/11/21 06:44:51;;;;;;;32.80;28.63;;;3.60;99.90;;;;;;5087893;28;20217;-69
2021/11/21 06:47:22;;;;;;;32.15;28.60;;;3.60;99.90;;;;;;5096590;28;20215;-70
2021/11/21 06:49:53;;;;;;;32.35;28.27;;;3.60;99.90;;;;;;5098283;28;20221;-68
2021/11/21 06:52:24;;;;;;;35.42;29.85;;;3.60;99.90;;;;;;5107041;28;20211;-69
2021/11/21 06:54:56;;;;;;;33.08;28.50;;;3.60;99.90;;;;;;5104721;28;20228;-68
2021/11/21 06:57:27;;;;;;;33.65;28.42;;;3.50;99.90;;;;;;5102290;28;20230;-75
2021/11/21 06:59:57;;;;;;;31.77;28.42;;;3.50;99.90;;;;;;5094060;28;20219;-72
2021/11/21 07:02:28;;;;;;;36.97;30.73;;;3.50;99.90;;;;;;5089095;28;20227;-69
2021/11/21 07:04:59;;;;;;;34.60;30.77;;;3.60;99.90;;;;;;5085038;28;20212;-67
2021/11/21 07:07:30;;;;;;;32.10;27.15;;;3.60;99.90;;;;;;5089740;28;20277;-72
2021/11/21 07:10:03;;;;;;;31.85;28.02;;;3.50;99.90;;;;;;5093687;28;20215;-69
2021/11/21 07:12:33;;;;;;;33.97;27.40;;;3.40;99.90;;;;;;5091965;28;20212;-73
2021/11/21 07:15:14;;;;;;;34.42;28.15;;;3.40;99.90;;;;;;5092882;28;20224;-69
2021/11/21 07:17:47;;;;;;;30.08;26.70;;;3.40;99.90;;;;;;5089790;28;20219;-69
2021/11/21 07:20:18;;;;;;;34.00;28.45;;;3.40;99.90;;;;;;5092288;28;20614;-69
2021/11/21 07:22:51;;;;;;;32.55;26.88;;;3.20;99.90;;;;;;5091317;28;20219;-69
2021/11/21 07:25:25;;;;;;;31.80;28.40;;;3.30;99.90;;;;;;5093949;28;20556;-69
2021/11/21 07:27:56;;;;;;;33.42;28.27;;;3.30;99.90;;;;;;5097996;28;20440;-69
2021/11/21 07:30:28;;;;;;;33.95;28.23;;;3.20;99.90;;;;;;5093505;28;20227;-72
2021/11/21 07:32:59;;;;;;;94.85;39.05;;;3.30;99.90;;;;;;5091397;28;20227;-73
2021/11/21 07:35:30;;;;;;;1999.90;599.63;;;3.30;99.90;;;;;;5099977;28;20220;-71
2021/11/21 07:38:00;;;;;;;169.45;49.65;;;3.20;99.90;;;;;;5076727;28;20666;-72
2021/11/21 07:40:33;;;;;;;37.83;31.85;;;3.20;99.90;;;;;;5090864;28;20216;-69
2021/11/21 07:43:06;;;;;;;42.38;36.47;;;3.20;99.90;;;;;;5105920;28;20206;-71
2021/11/21 07:45:36;;;;;;;39.08;34.83;;;3.20;99.90;;;;;;5087620;28;20220;-71
2021/11/21 07:48:07;;;;;;;42.83;32.15;;;3.20;99.90;;;;;;5096468;28;20217;-67
2021/11/21 07:50:38;;;;;;;39.22;33.20;;;3.20;99.90;;;;;;5100759;28;20224;-69
2021/11/21 07:53:09;;;;;;;36.50;32.65;;;3.10;99.90;;;;;;5095067;28;20239;-68
2021/11/21 07:55:42;;;;;;;36.85;31.63;;;3.20;99.90;;;;;;5090510;28;20232;-71
2021/11/21 07:58:13;;;;;;;37.25;30.63;;;3.20;99.90;;;;;;5094580;28;20215;-73
2021/11/21 08:00:44;;;;;;;35.55;29.83;;;3.10;99.90;;;;;;5092488;28;20216;-69
2021/11/21 08:03:15;;;;;;;34.40;30.80;;;3.10;99.90;;;;;;5098912;28;20340;-72
2021/11/21 08:05:46;;;;;;;36.28;28.63;;;3.10;99.90;;;;;;5102559;28;20290;-69
2021/11/21 08:08:17;;;;;;;31.90;27.60;;;3.00;99.90;;;;;;5092132;28;20588;-68
2021/11/21 08:10:50;;;;;;;37.05;29.75;;;3.00;99.90;;;;;;5089744;28;20212;-70
2021/11/21 08:13:20;;;;;;;34.70;28.52;;;2.90;99.90;;;;;;5092224;28;21044;-68
2021/11/21 08:15:51;;;;;;;32.00;27.67;;;2.90;99.90;;;;;;5103522;28;20247;-69
2021/11/21 08:18:22;;;;;;;31.75;25.35;;;2.90;99.90;;;;;;5105134;28;20258;-69
2021/11/21 08:20:54;;;;;;;28.45;25.33;;;2.70;99.90;;;;;;5100887;28;20217;-72
2021/11/21 08:23:25;;;;;;;29.40;25.15;;;2.80;99.90;;;;;;5091844;28;20212;-68
2021/11/21 08:25:58;;;;;;;30.50;25.15;;;2.80;99.90;;;;;;5090113;28;20219;-69
2021/11/21 08:28:28;;;;;;;31.17;27.00;;;2.70;99.90;;;;;;5083389;28;20605;-71
2021/11/21 08:31:00;;;;;;;26.38;23.65;;;2.80;99.90;;;;;;5091649;28;20212;-72
2021/11/21 08:33:31;;;;;;;28.52;25.60;;;2.70;99.90;;;;;;5090091;28;20248;-72
2021/11/21 08:36:01;;;;;;;35.40;29.13;;;2.80;99.90;;;;;;5088601;28;20222;-70
2021/11/21 08:38:34;;;;;;;37.83;27.73;;;2.90;99.90;;;;;;5091658;28;20636;-70
2021/11/21 08:41:06;;;;;;;35.75;30.15;;;2.90;99.90;;;;;;5093843;28;20268;-72
2021/11/21 08:43:37;;;;;;;41.30;31.02;;;2.90;99.90;;;;;;5102984;28;20672;-73
2021/11/21 08:46:08;;;;;;;36.80;30.10;;;3.00;99.90;;;;;;5091002;28;20268;-69
2021/11/21 08:48:39;;;;;;;31.30;27.48;;;3.10;99.90;;;;;;5095910;28;20220;-69
2021/11/21 08:51:10;;;;;;;32.25;28.75;;;3.20;99.90;;;;;;5096397;28;20223;-69
2021/11/21 08:53:45;;;;;;;35.63;29.30;;;3.20;99.90;;;;;;5105539;28;20235;-69
2021/11/21 08:56:17;;;;;;;38.00;29.55;;;3.20;99.90;;;;;;5093951;28;20223;-69
2021/11/21 08:58:48;;;;;;;34.85;27.35;;;3.30;99.90;;;;;;5098715;28;20545;-69
2021/11/21 09:01:20;;;;;;;35.42;23.42;;;3.50;99.90;;;;;;5084147;28;20215;-72
2021/11/21 09:03:51;;;;;;;28.05;22.65;;;3.60;99.90;;;;;;5091230;28;20235;-69
2021/11/21 09:06:22;;;;;;;28.90;24.27;;;3.50;99.90;;;;;;5106019;28;20314;-69
2021/11/21 09:08:53;;;;;;;31.92;23.88;;;3.60;99.90;;;;;;5100222;28;20218;-69
2021/11/21 09:11:25;;;;;;;43.25;24.00;;;3.70;99.90;;;;;;5100429;28;20213;-74
2021/11/21 09:13:56;;;;;;;53.45;22.08;;;3.80;99.90;;;;;;5091176;28;20217;-75
2021/11/21 09:16:28;;;;;;;1659.07;321.08;;;4.00;99.90;;;;;;5089302;28;20232;-71
2021/11/21 09:18:59;;;;;;;53.65;26.23;;;4.10;99.90;;;;;;5103500;28;20211;-72
2021/11/21 09:21:30;;;;;;;48.85;23.13;;;4.10;99.90;;;;;;5087796;28;20208;-74
2021/11/21 09:24:01;;;;;;;59.17;26.35;;;4.10;99.90;;;;;;5089538;28;20216;-71
2021/11/21 09:26:34;;;;;;;45.65;21.35;;;4.10;99.90;;;;;;5098091;28;20216;-70
2021/11/21 09:29:05;;;;;;;88.03;25.50;;;4.10;99.90;;;;;;5084964;28;20693;-68
2021/11/21 09:31:36;;;;;;;76.78;24.15;;;4.10;99.90;;;;;;5097421;28;20562;-69
2021/11/21 09:34:07;;;;;;;26.55;16.75;;;4.10;99.90;;;;;;5104105;28;20647;-69
2021/11/21 09:36:38;;;;;;;40.63;18.10;;;4.10;99.90;;;;;;5080204;28;20235;-69
2021/11/21 09:39:09;;;;;;;41.65;16.77;;;4.10;99.90;;;;;;5091907;28;20578;-69
2021/11/21 09:41:42;;;;;;;77.10;21.15;;;4.20;99.90;;;;;;5100190;28;20212;-70
2021/11/21 09:44:14;;;;;;;57.80;17.95;;;4.30;99.90;;;;;;5109752;28;20208;-70
2021/11/21 09:46:45;;;;;;;43.85;16.17;;;4.30;99.90;;;;;;5106494;28;20606;-70
2021/11/21 09:49:16;;;;;;;56.20;16.80;;;4.30;99.90;;;;;;5096911;28;20581;-69
2021/11/21 09:51:47;;;;;;;75.93;18.73;;;4.40;99.90;;;;;;5090586;28;20215;-69
2021/11/21 09:54:18;;;;;;;96.63;18.65;;;4.40;99.90;;;;;;5091570;28;20227;-74
2021/11/21 09:56:51;;;;;;;33.83;15.50;;;4.40;99.90;;;;;;5094215;28;20586;-70
2021/11/21 09:59:53;;;;;;;35.05;15.15;;;4.40;99.90;;;;;;5084069;28;20236;-71
2021/11/21 10:02:25;;;;;;;60.90;17.27;;;4.30;99.90;;;;;;5088001;28;20238;-71
2021/11/21 10:04:56;;;;;;;49.63;14.25;;;4.30;99.90;;;;;;5102995;28;20254;-70
2021/11/21 10:07:29;;;;;;;207.93;31.83;;;4.40;99.90;;;;;;5086635;28;20213;-70
2021/11/21 10:10:01;;;;;;;319.90;47.90;;;4.50;99.90;;;;;;5081234;28;20216;-69
2021/11/21 10:12:38;;;;;;;1294.55;199.27;;;4.50;99.90;;;;;;5106863;28;20673;-71
2021/11/21 10:15:10;;;;;;;1999.90;610.45;;;4.60;99.90;;;;;;5096631;28;20215;-70
2021/11/21 10:17:46;;;;;;;49.72;18.38;;;4.70;99.90;;;;;;5086823;28;20251;-74
2021/11/21 10:20:20;;;;;;;92.60;24.05;;;4.80;99.90;;;;;;5103765;28;20212;-72
2021/11/21 10:22:58;;;;;;;88.65;21.58;;;4.70;99.90;;;;;;5087783;28;20215;-73
2021/11/21 10:25:47;;;;;;;35.67;17.80;;;4.70;99.90;;;;;;5097656;28;20216;-69
2021/11/21 10:28:25;;;;;;;44.53;19.40;;;4.50;99.90;;;;;;5079296;28;20243;-70
2021/11/21 10:31:09;;;;;;;76.00;21.20;;;4.50;99.90;;;;;;5105790;28;20214;-69
2021/11/21 10:33:48;;;;;;;57.88;18.00;;;4.60;99.90;;;;;;5094094;28;20212;-68
2021/11/21 10:36:21;;;;;;;56.60;17.95;;;4.50;99.90;;;;;;5100334;28;20227;-69
2021/11/21 10:38:53;;;;;;;28.65;14.50;;;4.60;99.90;;;;;;5114267;28;20211;-71
2021/11/21 10:41:26;;;;;;;28.08;12.80;;;4.60;99.90;;;;;;5096802;28;20216;-69
2021/11/21 10:44:03;;;;;;;34.72;15.60;;;4.60;99.90;;;;;;5092819;28;20204;-68
2021/11/21 10:46:40;;;;;;;70.95;17.73;;;4.50;99.90;;;;;;5116287;28;20527;-69
2021/11/21 10:49:24;;;;;;;88.90;20.35;;;4.50;99.90;;;;;;5094544;28;20219;-69
2021/11/21 10:52:10;;;;;;;55.08;16.10;;;4.50;99.90;;;;;;5094280;28;20230;-68
2021/11/21 10:54:46;;;;;;;43.22;14.52;;;4.60;99.90;;;;;;5088609;28;20226;-69
2021/11/21 10:57:18;;;;;;;60.15;16.27;;;4.60;99.90;;;;;;5091994;28;20688;-69
2021/11/21 10:59:53;;;;;;;74.50;16.17;;;4.60;99.90;;;;;;5092954;28;20222;-68
2021/11/21 11:02:26;;;;;;;49.80;15.80;;;4.50;99.90;;;;;;5102792;28;20218;-70
2021/11/21 11:05:04;;;;;;;95.72;21.80;;;4.60;99.90;;;;;;5099823;28;20672;-69
2021/11/21 11:07:39;;;;;;;1381.15;219.55;;;4.60;99.90;;;;;;5090455;28;20248;-70
2021/11/21 11:10:12;;;;;;;38.08;15.77;;;4.80;99.90;;;;;;5090198;28;20212;-71
2021/11/21 11:12:45;;;;;;;79.20;16.00;;;4.90;99.90;;;;;;5093584;28;20288;-72
2021/11/21 11:15:19;;;;;;;41.38;14.52;;;4.90;99.90;;;;;;5091528;28;20219;-72
2021/11/21 11:17:50;;;;;;;64.93;16.00;;;4.70;99.90;;;;;;5104016;28;20219;-70
2021/11/21 11:20:22;;;;;;;141.63;20.65;;;4.70;99.90;;;;;;5091390;28;20213;-70
2021/11/21 11:22:55;;;;;;;158.10;20.85;;;4.70;99.90;;;;;;5093368;28;20529;-69
2021/11/21 11:25:29;;;;;;;77.45;16.05;;;4.70;99.90;;;;;;5101206;28;20307;-69
2021/11/21 11:28:09;;;;;;;49.38;12.48;;;4.60;99.90;;;;;;5084888;28;20643;-70
2021/11/21 11:30:42;;;;;;;89.43;16.45;;;4.50;99.90;;;;;;5092853;28;20212;-70
2021/11/21 11:33:15;;;;;;;88.20;15.10;;;4.50;99.90;;;;;;5098010;28;20212;-69
2021/11/21 11:35:47;;;;;;;45.58;11.77;;;4.50;99.90;;;;;;5092685;28;20251;-74
2021/11/21 11:38:21;;;;;;;38.15;10.40;;;4.40;99.90;;;;;;5105418;28;20231;-73
2021/11/21 11:40:55;;;;;;;75.50;13.82;;;4.40;99.90;;;;;;5092499;28;20246;-76
2021/11/21 11:43:40;;;;;;;78.13;14.48;;;4.40;99.90;;;;;;5097335;28;20227;-71
2021/11/21 11:46:28;;;;;;;42.25;11.55;;;4.40;99.90;;;;;;5117875;28;20216;-69
2021/11/21 11:49:01;;;;;;;55.45;12.35;;;4.50;99.90;;;;;;5086219;28;20582;-69
2021/11/21 11:51:55;;;;;;;69.88;12.15;;;4.60;99.90;;;;;;5092077;28;20297;-69
2021/11/21 11:54:28;;;;;;;62.25;13.05;;;4.40;99.90;;;;;;5108335;28;20212;-70
2021/11/21 11:57:02;;;;;;;505.17;73.18;;;4.40;99.90;;;;;;5083114;28;20224;-69
2021/11/21 11:59:38;;;;;;;1470.80;233.18;;;4.50;99.90;;;;;;5083627;28;20579;-70
2021/11/21 12:02:14;;;;;;;544.13;79.10;;;4.50;99.90;;;;;;5090788;28;20266;-70
2021/11/21 12:04:53;;;;;;;153.60;27.48;;;4.50;99.90;;;;;;5100743;28;20272;-72
2021/11/21 12:07:41;;;;;;;49.88;13.25;;;4.60;99.90;;;;;;5111416;28;20208;-70
2021/11/21 12:10:24;;;;;;;43.15;12.20;;;4.50;99.90;;;;;;5096162;28;20216;-70
2021/11/21 12:13:07;;;;;;;64.88;13.57;;;4.40;99.90;;;;;;5092912;28;20215;-69
2021/11/21 12:15:46;;;;;;;22.70;10.68;;;4.50;99.90;;;;;;5093003;28;20299;-73
2021/11/21 12:18:20;;;;;;;29.48;10.73;;;4.40;99.90;;;;;;5106092;28;20295;-78
2021/11/21 12:20:54;;;;;;;19.30;9.75;;;4.30;99.90;;;;;;5100154;28;20245;-69
2021/11/21 12:23:57;;;;;;;20.77;10.63;;;4.30;99.90;;;;;;5091825;28;20216;-70
2021/11/21 12:26:37;;;;;;;37.03;11.10;;;4.40;99.90;;;;;;5055776;28;20212;-70
2021/11/21 12:29:26;;;;;;;20.65;10.35;;;4.30;99.90;;;;;;5084529;28;20236;-72
2021/11/21 12:31:59;;;;;;;17.50;9.13;;;4.30;99.90;;;;;;5088948;28;20574;-70
2021/11/21 12:34:42;;;;;;;25.85;10.63;;;4.40;99.90;;;;;;5090167;28;20281;-71
2021/11/21 12:37:16;;;;;;;37.60;10.98;;;4.30;99.90;;;;;;5091672;28;20311;-69
2021/11/21 12:39:50;;;;;;;30.23;11.25;;;4.30;99.90;;;;;;5088182;28;20252;-69
2021/11/21 12:42:27;;;;;;;56.08;12.18;;;4.30;99.90;;;;;;5086835;28;20224;-70
2021/11/21 12:45:10;;;;;;;16.13;9.98;;;4.30;99.90;;;;;;5081688;28;20219;-68
2021/11/21 12:47:43;;;;;;;84.63;17.90;;;4.20;99.90;;;;;;5108251;28;20251;-69
2021/11/21 12:50:27;;;;;;;484.98;80.18;;;4.20;99.90;;;;;;5099321;28;20243;-69
2021/11/21 12:53:01;;;;;;;87.13;20.33;;;4.20;99.90;;;;;;5085715;28;20213;-70
2021/11/21 12:55:34;;;;;;;461.38;68.97;;;4.30;99.90;;;;;;5090679;28;20315;-69
2021/11/21 12:58:05;;;;;;;425.40;68.53;;;4.40;99.90;;;;;;5074280;28;20227;-70
2021/11/21 13:00:37;;;;;;;14.70;9.10;;;4.20;99.90;;;;;;5088683;28;20212;-74
2021/11/21 13:03:13;;;;;;;31.17;10.65;;;4.20;99.90;;;;;;5097224;28;20216;-70
2021/11/21 13:05:53;;;;;;;24.35;10.30;;;4.10;99.90;;;;;;5092252;28;20310;-72
2021/11/21 13:08:25;;;;;;;14.55;9.57;;;4.10;99.90;;;;;;5105447;28;20680;-70